createdAt,value
2023-05-09T00:00:14.433Z,11.56
2023-05-09T00:02:48.491Z,11.61
2023-05-09T00:05:18.016Z,11.72
2023-05-09T00:07:46.868Z,11.76
2023-05-09T00:10:16.159Z,11.84
2023-05-09T00:12:44.991Z,11.91
2023-05-09T00:15:14.387Z,11.98
2023-05-09T00:17:43.555Z,12.00
2023-05-09T00:20:13.538Z,12.06
2023-05-09T00:22:42.855Z,12.18
2023-05-09T00:25:12.859Z,12.30
2023-05-09T00:27:41.905Z,12.35
2023-05-09T00:30:10.936Z,12.51
2023-05-09T00:32:41.924Z,12.67
2023-05-09T00:35:11.036Z,12.98
2023-05-09T00:37:40.225Z,13.14
2023-05-09T00:40:11.304Z,13.28
2023-05-09T00:42:40.756Z,13.40
2023-05-09T00:45:10.226Z,13.67
2023-05-09T00:47:40.351Z,13.85
2023-05-09T00:50:10.494Z,14.11
2023-05-09T00:52:39.896Z,14.20
2023-05-09T00:55:09.560Z,14.27
2023-05-09T00:57:38.391Z,14.47
2023-05-09T01:00:13.750Z,14.63
2023-05-09T01:02:56.022Z,14.83
2023-05-09T01:05:35.935Z,15.01
2023-05-09T01:08:33.716Z,14.91
2023-05-09T01:11:12.296Z,14.96
2023-05-09T01:14:00.154Z,15.10
2023-05-09T01:16:48.683Z,15.24
2023-05-09T01:19:51.256Z,15.45
2023-05-09T01:22:22.813Z,15.71
2023-05-09T01:25:29.214Z,15.84
2023-05-09T01:28:13.429Z,16.33
2023-05-09T01:30:46.504Z,17.55
2023-05-09T01:33:21.308Z,18.59
2023-05-09T01:35:54.884Z,19.88
2023-05-09T01:38:26.343Z,21.41
2023-05-09T01:40:57.969Z,22.59
2023-05-09T01:43:31.140Z,23.56
2023-05-09T01:46:01.684Z,23.94
2023-05-09T01:48:32.361Z,24.42
2023-05-09T01:51:03.113Z,24.40
2023-05-09T01:53:33.454Z,24.02
2023-05-09T01:56:05.283Z,24.03
2023-05-09T01:58:36.991Z,24.47
2023-05-09T02:01:08.535Z,25.04
2023-05-09T02:03:39.467Z,25.48
2023-05-09T02:06:09.333Z,25.77
2023-05-09T02:08:38.788Z,26.10
2023-05-09T02:11:08.598Z,26.32
2023-05-09T02:13:38.937Z,26.41
2023-05-09T02:16:08.825Z,26.40
2023-05-09T02:18:39.298Z,26.62
2023-05-09T02:21:08.529Z,26.92
2023-05-09T02:23:37.474Z,27.26
2023-05-09T02:26:07.509Z,27.52
2023-05-09T02:28:37.468Z,27.79
2023-05-09T02:31:08.783Z,28.57
2023-05-09T02:33:40.241Z,29.05
2023-05-09T02:36:11.315Z,29.55
2023-05-09T02:38:42.574Z,29.80
2023-05-09T02:41:17.063Z,29.64
2023-05-09T02:43:46.681Z,29.62
2023-05-09T02:46:16.860Z,29.29
2023-05-09T02:48:49.356Z,29.74
2023-05-09T02:51:19.841Z,29.64
2023-05-09T02:53:49.165Z,29.27
2023-05-09T02:56:18.105Z,29.10
2023-05-09T02:58:51.947Z,29.17
2023-05-09T03:01:23.781Z,29.35
2023-05-09T03:03:53.896Z,29.27
2023-05-09T03:06:24.221Z,29.36
2023-05-09T03:08:53.132Z,29.71
2023-05-09T03:11:24.054Z,29.72
2023-05-09T03:13:53.408Z,30.19
2023-05-09T03:16:22.349Z,30.36
2023-05-09T03:18:52.384Z,30.39
2023-05-09T03:21:21.842Z,31.43
2023-05-09T03:23:50.793Z,32.31
2023-05-09T03:26:20.302Z,32.39
2023-05-09T03:28:50.852Z,32.86
2023-05-09T03:31:19.896Z,33.52
2023-05-09T03:33:48.993Z,34.08
2023-05-09T03:36:18.295Z,34.56
2023-05-09T03:38:47.246Z,33.61
2023-05-09T03:41:19.283Z,32.83
2023-05-09T03:43:49.809Z,32.91
2023-05-09T03:46:18.884Z,32.57
2023-05-09T03:48:50.073Z,32.71
2023-05-09T03:51:19.515Z,33.00
2023-05-09T03:53:48.976Z,33.28
2023-05-09T03:56:18.884Z,33.52
2023-05-09T03:58:52.185Z,33.76
2023-05-09T04:01:21.773Z,34.32
2023-05-09T04:03:52.732Z,33.83
2023-05-09T04:06:24.084Z,33.20
2023-05-09T04:08:53.499Z,32.63
2023-05-09T04:11:22.386Z,31.97
2023-05-09T04:13:52.203Z,31.66
2023-05-09T04:16:31.325Z,31.67
2023-05-09T04:19:01.141Z,31.97
2023-05-09T04:21:30.629Z,32.44
2023-05-09T04:24:02.137Z,33.35
2023-05-09T04:26:39.103Z,33.69
2023-05-09T04:29:12.102Z,34.03
2023-05-09T04:31:42.044Z,34.89
2023-05-09T04:34:13.809Z,35.80
2023-05-09T04:36:43.290Z,35.93
2023-05-09T04:39:13.516Z,36.07
2023-05-09T04:41:51.877Z,36.07
2023-05-09T04:44:22.780Z,35.64
2023-05-09T04:46:52.227Z,35.25
2023-05-09T04:49:21.659Z,34.97
2023-05-09T04:51:50.655Z,34.63
2023-05-09T04:54:20.257Z,34.69
2023-05-09T04:56:53.244Z,35.13
2023-05-09T04:59:27.011Z,35.71
2023-05-09T05:01:58.158Z,35.93
2023-05-09T05:04:28.746Z,36.62
2023-05-09T05:06:58.656Z,36.92
2023-05-09T05:09:27.642Z,37.54
2023-05-09T05:12:01.637Z,37.66
2023-05-09T05:14:32.703Z,37.66
2023-05-09T05:17:04.256Z,37.34
2023-05-09T05:19:34.750Z,37.05
2023-05-09T05:22:04.994Z,36.88
2023-05-09T05:24:35.557Z,37.11
2023-05-09T05:27:04.979Z,36.86
2023-05-09T05:29:34.152Z,36.15
2023-05-09T05:32:03.064Z,36.39
2023-05-09T05:34:32.698Z,36.76
2023-05-09T05:37:02.123Z,37.13
2023-05-09T05:39:31.700Z,37.18
2023-05-09T05:42:01.524Z,36.65
2023-05-09T05:44:30.609Z,36.80
2023-05-09T05:47:00.149Z,37.31
2023-05-09T05:49:29.343Z,37.66
2023-05-09T05:52:00.064Z,38.68
2023-05-09T05:54:30.071Z,39.42
2023-05-09T05:56:59.925Z,39.54
2023-05-09T05:59:29.419Z,38.57
2023-05-09T06:01:59.953Z,38.69
2023-05-09T06:04:33.558Z,38.17
2023-05-09T06:07:03.089Z,36.93
2023-05-09T06:09:34.029Z,37.03
2023-05-09T06:12:03.313Z,38.29
2023-05-09T06:14:33.318Z,39.24
2023-05-09T06:17:03.468Z,39.31
2023-05-09T06:19:32.633Z,38.44
2023-05-09T06:22:02.616Z,38.03
2023-05-09T06:24:35.776Z,37.42
2023-05-09T06:27:06.228Z,37.15
2023-05-09T06:29:35.982Z,37.13
2023-05-09T06:32:06.471Z,37.71
2023-05-09T06:34:36.505Z,37.78
2023-05-09T06:37:05.979Z,37.57
2023-05-09T06:39:36.606Z,37.14
2023-05-09T06:42:05.793Z,37.33
2023-05-09T06:44:39.875Z,37.39
2023-05-09T06:47:09.070Z,36.85
2023-05-09T06:49:39.310Z,36.95
2023-05-09T06:52:08.546Z,37.31
2023-05-09T06:54:37.935Z,37.78
2023-05-09T06:57:08.001Z,38.16
2023-05-09T06:59:37.202Z,38.05
2023-05-09T07:02:07.089Z,37.84
2023-05-09T07:04:36.418Z,37.54
2023-05-09T07:07:06.844Z,37.66
2023-05-09T07:09:35.934Z,37.47
2023-05-09T07:12:05.797Z,37.11
2023-05-09T07:14:34.876Z,37.11
2023-05-09T07:17:21.247Z,36.58
2023-05-09T07:19:52.454Z,36.78
2023-05-09T07:22:24.785Z,37.16
2023-05-09T07:24:54.466Z,37.01
2023-05-09T07:27:24.068Z,36.98
2023-05-09T07:29:53.881Z,36.83
2023-05-09T07:32:22.885Z,36.42
2023-05-09T07:34:51.993Z,36.17
2023-05-09T07:37:21.646Z,36.24
2023-05-09T07:39:50.913Z,36.30
2023-05-09T07:42:20.631Z,36.65
2023-05-09T07:44:51.382Z,36.63
2023-05-09T07:47:21.306Z,36.60
2023-05-09T07:49:50.504Z,36.34
2023-05-09T07:52:19.729Z,35.66
2023-05-09T07:54:48.817Z,34.54
2023-05-09T07:57:18.630Z,33.31
2023-05-09T07:59:48.111Z,31.86
2023-05-09T08:02:18.166Z,30.31
2023-05-09T08:04:49.421Z,29.03
2023-05-09T08:07:18.595Z,28.16
2023-05-09T08:09:48.388Z,27.49
2023-05-09T08:12:17.678Z,27.14
2023-05-09T08:14:47.519Z,26.72
2023-05-09T08:17:19.580Z,26.33
2023-05-09T08:19:48.515Z,26.07
2023-05-09T08:22:19.298Z,26.00
2023-05-09T08:24:48.586Z,25.82
2023-05-09T08:27:17.901Z,25.56
2023-05-09T08:29:47.594Z,25.43
2023-05-09T08:32:16.926Z,25.31
2023-05-09T08:34:47.809Z,25.19
2023-05-09T08:37:17.031Z,25.07
2023-05-09T08:39:46.156Z,24.94
2023-05-09T08:42:20.643Z,24.83
2023-05-09T08:44:50.301Z,24.88
2023-05-09T08:47:21.881Z,25.01
2023-05-09T08:49:52.222Z,24.87
2023-05-09T08:52:21.600Z,24.69
2023-05-09T08:54:52.054Z,24.56
2023-05-09T08:57:21.613Z,24.55
2023-05-09T08:59:53.132Z,24.58
2023-05-09T09:02:23.109Z,24.50
2023-05-09T09:04:52.379Z,24.43
2023-05-09T09:07:22.324Z,24.38
2023-05-09T09:09:52.999Z,24.39
2023-05-09T09:12:26.319Z,24.31
2023-05-09T09:14:57.439Z,24.21
2023-05-09T09:17:29.112Z,24.14
2023-05-09T09:20:02.465Z,24.03
2023-05-09T09:22:36.728Z,24.00
2023-05-09T09:25:06.347Z,23.98
2023-05-09T09:27:36.148Z,23.95
2023-05-09T09:30:12.880Z,23.91
2023-05-09T09:32:42.529Z,23.70
2023-05-09T09:35:13.364Z,23.56
2023-05-09T09:37:44.270Z,23.54
2023-05-09T09:40:15.137Z,23.53
2023-05-09T09:42:52.803Z,23.40
2023-05-09T09:45:22.104Z,23.35
2023-05-09T09:47:51.193Z,23.36
2023-05-09T09:50:23.842Z,23.35
2023-05-09T09:52:57.520Z,23.42
2023-05-09T09:55:26.373Z,23.46
2023-05-09T09:57:56.089Z,23.59
2023-05-09T10:00:32.837Z,23.54
2023-05-09T10:03:02.481Z,23.46
2023-05-09T10:05:35.080Z,23.25
2023-05-09T10:08:05.772Z,22.97
2023-05-09T10:10:37.467Z,22.68
2023-05-09T10:13:12.634Z,22.51
2023-05-09T10:15:53.214Z,22.55
2023-05-09T10:18:28.111Z,22.49
2023-05-09T10:21:01.406Z,22.54
2023-05-09T10:23:31.977Z,22.56
2023-05-09T10:26:19.137Z,22.50
2023-05-09T10:28:51.504Z,22.36
2023-05-09T10:31:27.736Z,22.22
2023-05-09T10:33:57.078Z,22.11
2023-05-09T10:36:26.036Z,21.86
2023-05-09T10:38:56.856Z,21.56
2023-05-09T10:41:26.375Z,21.39
2023-05-09T10:44:01.068Z,21.30
2023-05-09T10:46:30.305Z,21.33
2023-05-09T10:48:59.761Z,21.26
2023-05-09T10:51:29.643Z,21.23
2023-05-09T10:54:00.479Z,21.30
2023-05-09T10:56:36.137Z,21.25
2023-05-09T10:59:05.191Z,21.20
2023-05-09T11:01:37.996Z,21.22
2023-05-09T11:04:13.225Z,21.28
2023-05-09T11:06:44.670Z,21.34
2023-05-09T11:09:37.694Z,21.37
2023-05-09T11:12:13.478Z,21.34
2023-05-09T11:14:47.951Z,21.40
2023-05-09T11:17:23.239Z,21.37
2023-05-09T11:19:52.322Z,21.35
2023-05-09T11:22:22.898Z,21.33
2023-05-09T11:24:56.715Z,21.29
2023-05-09T11:27:27.121Z,21.27
2023-05-09T11:29:59.017Z,21.28
2023-05-09T11:32:41.598Z,21.22
2023-05-09T11:35:16.667Z,21.08
2023-05-09T11:38:01.917Z,21.02
2023-05-09T11:40:31.681Z,20.92
2023-05-09T11:43:01.770Z,20.90
2023-05-09T11:45:33.210Z,20.78
2023-05-09T11:48:03.952Z,20.67
2023-05-09T11:50:33.319Z,20.60
2023-05-09T11:53:02.188Z,20.54
2023-05-09T11:55:32.231Z,20.35
2023-05-09T11:58:01.388Z,20.40
2023-05-09T12:00:32.531Z,20.34
2023-05-09T12:03:02.446Z,20.31
2023-05-09T12:05:31.829Z,20.27
2023-05-09T12:08:05.410Z,20.22
2023-05-09T12:10:39.011Z,20.15
2023-05-09T12:13:08.031Z,20.07
2023-05-09T12:15:38.981Z,19.93
2023-05-09T12:18:09.443Z,19.91
2023-05-09T12:20:50.798Z,19.84
2023-05-09T12:23:20.297Z,19.78
2023-05-09T12:25:58.480Z,19.73
2023-05-09T12:28:28.204Z,19.68
2023-05-09T12:30:57.533Z,19.55
2023-05-09T12:33:27.453Z,19.54
2023-05-09T12:36:09.151Z,19.50
2023-05-09T12:38:38.306Z,19.42
2023-05-09T12:41:18.746Z,19.31
2023-05-09T12:43:58.337Z,19.30
2023-05-09T12:46:27.343Z,19.28
2023-05-09T12:48:57.002Z,19.29
2023-05-09T12:51:25.962Z,19.24
2023-05-09T12:53:55.020Z,19.24
2023-05-09T12:56:24.097Z,19.21
2023-05-09T12:58:55.377Z,19.13
2023-05-09T13:01:30.322Z,19.04
2023-05-09T13:04:06.258Z,18.87
2023-05-09T13:06:36.638Z,18.87
2023-05-09T13:09:09.538Z,18.79
2023-05-09T13:11:39.242Z,18.71
2023-05-09T13:14:08.954Z,18.69
2023-05-09T13:16:37.910Z,18.66
2023-05-09T13:19:07.106Z,18.63
2023-05-09T13:21:36.670Z,18.57
2023-05-09T13:24:07.369Z,18.46
2023-05-09T13:26:37.007Z,18.39
2023-05-09T13:29:07.064Z,18.28
2023-05-09T13:31:36.840Z,18.12
2023-05-09T13:34:05.632Z,18.06
2023-05-09T13:36:34.976Z,18.00
2023-05-09T13:39:04.716Z,17.93
2023-05-09T13:41:36.352Z,17.82
2023-05-09T13:44:08.127Z,17.79
2023-05-09T13:46:37.867Z,17.82
2023-05-09T13:49:07.942Z,17.91
2023-05-09T13:51:37.101Z,17.95
2023-05-09T13:54:10.233Z,17.95
2023-05-09T13:56:41.523Z,17.81
2023-05-09T13:59:12.804Z,17.68
2023-05-09T14:01:42.848Z,17.70
2023-05-09T14:04:13.390Z,17.56
2023-05-09T14:06:48.591Z,17.52
2023-05-09T14:09:17.916Z,17.52
2023-05-09T14:11:47.447Z,17.52
2023-05-09T14:14:16.516Z,17.56
2023-05-09T14:16:45.597Z,17.68
2023-05-09T14:19:18.080Z,17.74
2023-05-09T14:21:49.955Z,17.80
2023-05-09T14:24:18.865Z,17.70
2023-05-09T14:26:47.661Z,17.66
2023-05-09T14:29:18.033Z,17.53
2023-05-09T14:31:47.127Z,17.46
2023-05-09T14:34:16.091Z,17.45
2023-05-09T14:36:44.965Z,17.44
2023-05-09T14:39:13.789Z,17.47
2023-05-09T14:41:50.969Z,17.47
2023-05-09T14:44:20.642Z,17.50
2023-05-09T14:46:50.466Z,17.50
2023-05-09T14:49:21.057Z,17.49
2023-05-09T14:51:50.001Z,17.42
2023-05-09T14:54:18.801Z,17.44
2023-05-09T14:56:49.528Z,17.52
2023-05-09T14:59:18.593Z,17.60
2023-05-09T15:01:48.669Z,17.58
2023-05-09T15:04:18.096Z,17.52
2023-05-09T15:06:47.241Z,17.46
2023-05-09T15:09:16.427Z,17.50
2023-05-09T15:11:48.788Z,17.52
2023-05-09T15:14:18.311Z,17.44
2023-05-09T15:16:47.386Z,17.49
2023-05-09T15:19:19.761Z,17.84
2023-05-09T15:21:48.932Z,18.14
2023-05-09T15:24:20.260Z,18.27
2023-05-09T15:26:50.718Z,18.31
2023-05-09T15:29:19.950Z,18.27
2023-05-09T15:31:49.475Z,18.19
2023-05-09T15:34:19.213Z,18.02
2023-05-09T15:36:48.216Z,17.81
2023-05-09T15:39:18.151Z,17.63
2023-05-09T15:41:47.353Z,17.54
2023-05-09T15:44:16.806Z,17.44
2023-05-09T15:46:46.899Z,17.35
2023-05-09T15:49:15.902Z,17.31
2023-05-09T15:51:45.553Z,17.22
2023-05-09T15:54:14.983Z,17.18
2023-05-09T15:56:44.215Z,17.06
2023-05-09T15:59:13.326Z,17.00
2023-05-09T16:01:44.006Z,16.93
2023-05-09T16:04:14.754Z,16.84
2023-05-09T16:06:44.458Z,16.82
2023-05-09T16:09:14.347Z,16.83
2023-05-09T16:11:43.548Z,16.80
2023-05-09T16:14:13.515Z,16.84
2023-05-09T16:16:43.418Z,16.83
2023-05-09T16:19:12.225Z,16.78
2023-05-09T16:21:41.276Z,16.80
2023-05-09T16:24:10.127Z,16.83
2023-05-09T16:26:39.019Z,16.95
2023-05-09T16:29:08.153Z,16.89
2023-05-09T16:31:37.218Z,16.76
2023-05-09T16:34:07.958Z,16.73
2023-05-09T16:36:38.385Z,16.66
2023-05-09T16:39:07.921Z,16.56
2023-05-09T16:41:36.734Z,16.43
2023-05-09T16:44:06.758Z,16.19
2023-05-09T16:46:35.705Z,16.15
2023-05-09T16:49:04.785Z,16.11
2023-05-09T16:51:34.002Z,16.05
2023-05-09T16:54:02.807Z,16.01
2023-05-09T16:56:31.724Z,15.89
2023-05-09T16:59:00.680Z,15.78
2023-05-09T17:01:30.209Z,15.65
2023-05-09T17:03:59.392Z,15.53
2023-05-09T17:06:28.800Z,15.49
2023-05-09T17:08:57.753Z,15.41
2023-05-09T17:11:27.379Z,15.31
2023-05-09T17:13:56.476Z,15.26
2023-05-09T17:16:25.498Z,15.36
2023-05-09T17:18:54.481Z,15.41
2023-05-09T17:21:23.608Z,15.38
2023-05-09T17:23:54.505Z,15.29
2023-05-09T17:26:23.796Z,15.25
2023-05-09T17:28:52.663Z,15.18
2023-05-09T17:31:21.885Z,15.10
2023-05-09T17:33:50.982Z,15.01
2023-05-09T17:36:19.784Z,14.96
2023-05-09T17:38:48.806Z,14.93
2023-05-09T17:41:17.928Z,14.91
2023-05-09T17:43:46.845Z,14.89
2023-05-09T17:46:15.742Z,14.87
2023-05-09T17:48:45.176Z,14.77
2023-05-09T17:51:14.011Z,14.68
2023-05-09T17:53:43.096Z,14.75
2023-05-09T17:56:11.977Z,14.79
2023-05-09T17:58:41.197Z,14.76
2023-05-09T18:01:10.931Z,14.78
2023-05-09T18:03:40.210Z,14.76
2023-05-09T18:06:09.165Z,14.68
2023-05-09T18:08:38.081Z,14.64
2023-05-09T18:11:07.120Z,14.62
2023-05-09T18:13:36.083Z,14.53
2023-05-09T18:16:05.071Z,14.41
2023-05-09T18:18:34.860Z,14.30
2023-05-09T18:21:05.494Z,14.13
2023-05-09T18:23:34.425Z,14.08
2023-05-09T18:26:03.332Z,14.09
2023-05-09T18:28:36.584Z,14.09
2023-05-09T18:31:06.927Z,14.11
2023-05-09T18:33:39.673Z,14.15
2023-05-09T18:36:12.075Z,14.16
2023-05-09T18:38:41.660Z,14.13
2023-05-09T18:41:12.657Z,14.07
2023-05-09T18:43:46.359Z,14.08
2023-05-09T18:46:21.631Z,14.07
2023-05-09T18:48:52.360Z,14.12
2023-05-09T18:51:21.485Z,14.21
2023-05-09T18:53:50.311Z,14.27
2023-05-09T18:56:22.737Z,14.40
2023-05-09T18:58:51.670Z,14.48
2023-05-09T19:01:21.729Z,14.55
2023-05-09T19:03:54.727Z,14.57
2023-05-09T19:06:24.708Z,14.52
2023-05-09T19:08:54.617Z,14.51
2023-05-09T19:11:23.810Z,14.54
2023-05-09T19:13:53.565Z,14.57
2023-05-09T19:16:23.787Z,14.62
2023-05-09T19:18:56.034Z,14.65
2023-05-09T19:21:24.936Z,14.78
2023-05-09T19:23:53.865Z,14.82
2023-05-09T19:26:22.768Z,14.81
2023-05-09T19:28:52.061Z,14.81
2023-05-09T19:31:21.071Z,14.75
2023-05-09T19:33:50.227Z,14.64
2023-05-09T19:36:18.990Z,14.56
2023-05-09T19:38:47.815Z,14.50
2023-05-09T19:41:16.805Z,14.57
2023-05-09T19:43:47.084Z,14.57
2023-05-09T19:46:15.872Z,14.59
2023-05-09T19:48:44.878Z,14.61
2023-05-09T19:51:15.768Z,14.55
2023-05-09T19:53:44.722Z,14.59
2023-05-09T19:56:14.482Z,14.65
2023-05-09T19:58:43.949Z,14.75
2023-05-09T20:01:13.712Z,14.73
2023-05-09T20:03:47.223Z,14.63
2023-05-09T20:06:16.896Z,14.72
2023-05-09T20:08:47.611Z,14.74
2023-05-09T20:11:16.587Z,14.70
2023-05-09T20:13:45.546Z,14.69
2023-05-09T20:16:14.586Z,14.75
2023-05-09T20:18:43.578Z,14.84
2023-05-09T20:21:12.597Z,14.91
2023-05-09T20:23:41.641Z,14.78
2023-05-09T20:26:10.520Z,14.70
2023-05-09T20:28:39.378Z,14.62
2023-05-09T20:31:08.500Z,14.58
2023-05-09T20:33:37.359Z,14.64
2023-05-09T20:36:08.568Z,14.68
2023-05-09T20:38:37.456Z,14.64
2023-05-09T20:41:06.290Z,14.57
2023-05-09T20:43:35.147Z,14.42
2023-05-09T20:46:04.148Z,14.24
2023-05-09T20:48:33.158Z,14.12
2023-05-09T20:51:02.094Z,14.14
2023-05-09T20:53:32.891Z,14.15
2023-05-09T20:56:04.873Z,14.15
2023-05-09T20:58:35.298Z,14.20
2023-05-09T21:01:07.813Z,14.22
2023-05-09T21:03:37.257Z,14.24
2023-05-09T21:06:06.724Z,14.27
2023-05-09T21:08:35.668Z,14.25
2023-05-09T21:11:04.504Z,14.23
2023-05-09T21:13:33.396Z,14.16
2023-05-09T21:16:02.326Z,14.09
2023-05-09T21:18:31.164Z,14.06
2023-05-09T21:21:03.360Z,13.99
2023-05-09T21:23:32.180Z,13.95
2023-05-09T21:26:01.445Z,13.94
2023-05-09T21:28:30.648Z,13.85
2023-05-09T21:31:02.283Z,13.88
2023-05-09T21:33:31.858Z,13.90
2023-05-09T21:36:00.840Z,13.82
2023-05-09T21:38:29.853Z,13.76
2023-05-09T21:40:58.953Z,13.83
2023-05-09T21:43:29.159Z,13.85
2023-05-09T21:45:58.146Z,13.87
2023-05-09T21:48:27.044Z,13.77
2023-05-09T21:50:56.176Z,13.65
2023-05-09T21:53:25.050Z,13.46
2023-05-09T21:55:53.997Z,13.26
2023-05-09T21:58:22.925Z,13.08
2023-05-09T22:00:52.403Z,12.95
2023-05-09T22:03:21.488Z,12.85
2023-05-09T22:05:50.354Z,12.80
2023-05-09T22:08:19.215Z,12.73
2023-05-09T22:10:48.102Z,12.63
2023-05-09T22:13:17.172Z,12.54
2023-05-09T22:15:46.091Z,12.49
2023-05-09T22:18:15.010Z,12.43
2023-05-09T22:20:43.869Z,12.43
2023-05-09T22:23:12.914Z,12.47
2023-05-09T22:25:41.813Z,12.50
2023-05-09T22:28:10.820Z,12.49
2023-05-09T22:30:39.978Z,12.52
2023-05-09T22:33:09.758Z,12.62
2023-05-09T22:35:39.493Z,12.80
2023-05-09T22:38:08.296Z,12.91
2023-05-09T22:40:37.206Z,12.93
2023-05-09T22:43:06.283Z,12.87
2023-05-09T22:45:35.166Z,12.82
2023-05-09T22:48:04.363Z,12.85
2023-05-09T22:50:33.425Z,12.91
2023-05-09T22:53:02.757Z,13.07
2023-05-09T22:55:31.725Z,13.19
2023-05-09T22:58:00.533Z,13.26
2023-05-09T23:00:30.185Z,13.28
2023-05-09T23:03:00.813Z,13.30
2023-05-09T23:05:30.012Z,13.30
2023-05-09T23:07:58.900Z,13.29
2023-05-09T23:10:27.931Z,13.24
2023-05-09T23:12:56.901Z,13.26
2023-05-09T23:15:26.502Z,13.28
2023-05-09T23:17:55.499Z,13.17
2023-05-09T23:20:24.381Z,13.12
2023-05-09T23:22:53.460Z,13.21
2023-05-09T23:25:22.390Z,13.24
2023-05-09T23:27:51.206Z,13.20
2023-05-09T23:30:20.131Z,13.28
2023-05-09T23:32:49.066Z,13.32
2023-05-09T23:35:18.257Z,13.30
2023-05-09T23:37:47.051Z,13.28
2023-05-09T23:40:16.115Z,13.30
2023-05-09T23:42:45.105Z,13.40
2023-05-09T23:45:13.933Z,13.47
2023-05-09T23:47:42.806Z,13.41
2023-05-09T23:50:12.628Z,13.49
2023-05-09T23:52:42.876Z,13.52
2023-05-09T23:55:12.094Z,13.42
2023-05-09T23:57:41.037Z,13.33
